sensor_id;sensor_type;location;lat;lon;timestamp;P1;durP1;ratioP1;P2;durP2;ratioP2
2720;SDS011;1368;49.484;11.112;2024-02-04T00:00:13;4.93;;;4.43;;
2720;SDS011;1368;49.484;11.112;2024-02-04T00:02:40;4.33;;;3.60;;
2720;SDS011;1368;49.484;11.112;2024-02-04T00:05:05;6.73;;;3.57;;
2720;SDS011;1368;49.484;11.112;2024-02-04T00:07:31;4.93;;;3.80;;
2720;SDS011;1368;49.484;11.112;2024-02-04T00:09:57;4.40;;;3.40;;
2720;SDS011;1368;49.484;11.112;2024-02-04T00:12:22;4.07;;;3.40;;
2720;SDS011;1368;49.484;11.112;2024-02-04T00:14:48;4.33;;;3.50;;
2720;SDS011;1368;49.484;11.112;2024-02-04T00:17:16;3.63;;;3.13;;
2720;SDS011;1368;49.484;11.112;2024-02-04T00:19:42;4.47;;;3.27;;
2720;SDS011;1368;49.484;11.112;2024-02-04T00:22:08;8.10;;;2.97;;
2720;SDS011;1368;49.484;11.112;2024-02-04T00:24:34;3.10;;;2.80;;
2720;SDS011;1368;49.484;11.112;2024-02-04T00:26:59;3.70;;;2.93;;
2720;SDS011;1368;49.484;11.112;2024-02-04T00:29:25;5.47;;;3.60;;
2720;SDS011;1368;49.484;11.112;2024-02-04T00:31:50;4.47;;;3.33;;
2720;SDS011;1368;49.484;11.112;2024-02-04T00:34:16;5.83;;;3.13;;
2720;SDS011;1368;49.484;11.112;2024-02-04T00:36:41;3.67;;;2.70;;
2720;SDS011;1368;49.484;11.112;2024-02-04T00:39:07;4.43;;;3.13;;
2720;SDS011;1368;49.484;11.112;2024-02-04T00:41:33;3.70;;;2.67;;
2720;SDS011;1368;49.484;11.112;2024-02-04T00:43:59;4.77;;;3.10;;
2720;SDS011;1368;49.484;11.112;2024-02-04T00:46:25;3.13;;;2.63;;
2720;SDS011;1368;49.484;11.112;2024-02-04T00:48:51;3.03;;;2.43;;
2720;SDS011;1368;49.484;11.112;2024-02-04T00:51:16;3.80;;;2.60;;
2720;SDS011;1368;49.484;11.112;2024-02-04T00:53:45;5.70;;;3.17;;
2720;SDS011;1368;49.484;11.112;2024-02-04T00:56:11;4.70;;;2.90;;
2720;SDS011;1368;49.484;11.112;2024-02-04T00:58:37;3.20;;;2.67;;
2720;SDS011;1368;49.484;11.112;2024-02-04T01:01:03;4.17;;;3.10;;
2720;SDS011;1368;49.484;11.112;2024-02-04T01:03:30;3.77;;;2.60;;
2720;SDS011;1368;49.484;11.112;2024-02-04T01:05:56;4.27;;;3.03;;
2720;SDS011;1368;49.484;11.112;2024-02-04T01:08:22;3.87;;;2.90;;
2720;SDS011;1368;49.484;11.112;2024-02-04T01:10:47;2.93;;;2.20;;
2720;SDS011;1368;49.484;11.112;2024-02-04T01:13:13;3.90;;;2.50;;
2720;SDS011;1368;49.484;11.112;2024-02-04T01:15:39;3.63;;;2.70;;
2720;SDS011;1368;49.484;11.112;2024-02-04T01:18:04;2.90;;;2.27;;
2720;SDS011;1368;49.484;11.112;2024-02-04T01:20:30;2.80;;;2.13;;
2720;SDS011;1368;49.484;11.112;2024-02-04T01:22:55;4.70;;;2.97;;
2720;SDS011;1368;49.484;11.112;2024-02-04T01:25:21;3.10;;;2.30;;
2720;SDS011;1368;49.484;11.112;2024-02-04T01:27:47;5.20;;;2.30;;
2720;SDS011;1368;49.484;11.112;2024-02-04T01:30:12;3.93;;;3.20;;
2720;SDS011;1368;49.484;11.112;2024-02-04T01:32:38;2.97;;;2.47;;
2720;SDS011;1368;49.484;11.112;2024-02-04T01:35:03;4.00;;;2.40;;
2720;SDS011;1368;49.484;11.112;2024-02-04T01:37:29;3.87;;;2.50;;
2720;SDS011;1368;49.484;11.112;2024-02-04T01:39:55;3.03;;;2.30;;
2720;SDS011;1368;49.484;11.112;2024-02-04T01:42:20;3.10;;;2.60;;
2720;SDS011;1368;49.484;11.112;2024-02-04T01:44:46;6.60;;;2.90;;
2720;SDS011;1368;49.484;11.112;2024-02-04T01:47:11;4.23;;;2.83;;
2720;SDS011;1368;49.484;11.112;2024-02-04T01:49:37;8.77;;;2.80;;
2720;SDS011;1368;49.484;11.112;2024-02-04T01:52:03;4.47;;;2.47;;
2720;SDS011;1368;49.484;11.112;2024-02-04T01:54:30;3.47;;;2.73;;
2720;SDS011;1368;49.484;11.112;2024-02-04T01:56:56;4.20;;;2.70;;
2720;SDS011;1368;49.484;11.112;2024-02-04T01:59:26;4.30;;;3.27;;
2720;SDS011;1368;49.484;11.112;2024-02-04T02:01:55;4.27;;;2.67;;
2720;SDS011;1368;49.484;11.112;2024-02-04T02:04:24;3.97;;;2.80;;
2720;SDS011;1368;49.484;11.112;2024-02-04T02:06:50;3.43;;;2.33;;
2720;SDS011;1368;49.484;11.112;2024-02-04T02:09:16;2.80;;;2.30;;
2720;SDS011;1368;49.484;11.112;2024-02-04T02:11:54;3.27;;;2.80;;
2720;SDS011;1368;49.484;11.112;2024-02-04T02:14:44;3.07;;;2.63;;
2720;SDS011;1368;49.484;11.112;2024-02-04T02:17:15;3.40;;;2.50;;
2720;SDS011;1368;49.484;11.112;2024-02-04T02:19:46;4.03;;;2.97;;
2720;SDS011;1368;49.484;11.112;2024-02-04T02:25:04;3.73;;;2.33;;
2720;SDS011;1368;49.484;11.112;2024-02-04T02:27:31;3.43;;;2.33;;
2720;SDS011;1368;49.484;11.112;2024-02-04T02:29:57;4.10;;;2.60;;
2720;SDS011;1368;49.484;11.112;2024-02-04T02:32:22;3.00;;;2.57;;
2720;SDS011;1368;49.484;11.112;2024-02-04T02:34:48;4.67;;;2.70;;
2720;SDS011;1368;49.484;11.112;2024-02-04T02:39:42;3.43;;;2.50;;
2720;SDS011;1368;49.484;11.112;2024-02-04T02:42:29;3.50;;;2.50;;
2720;SDS011;1368;49.484;11.112;2024-02-04T02:44:56;2.87;;;2.00;;
2720;SDS011;1368;49.484;11.112;2024-02-04T02:47:22;3.43;;;2.50;;
2720;SDS011;1368;49.484;11.112;2024-02-04T02:49:51;3.60;;;2.90;;
2720;SDS011;1368;49.484;11.112;2024-02-04T02:52:18;2.97;;;2.00;;
2720;SDS011;1368;49.484;11.112;2024-02-04T02:54:44;3.67;;;2.60;;
2720;SDS011;1368;49.484;11.112;2024-02-04T02:57:09;3.23;;;2.10;;
2720;SDS011;1368;49.484;11.112;2024-02-04T02:59:35;5.07;;;2.40;;
2720;SDS011;1368;49.484;11.112;2024-02-04T03:02:00;2.87;;;2.37;;
2720;SDS011;1368;49.484;11.112;2024-02-04T03:04:26;3.53;;;2.57;;
2720;SDS011;1368;49.484;11.112;2024-02-04T03:06:51;3.50;;;2.70;;
2720;SDS011;1368;49.484;11.112;2024-02-04T03:09:17;4.30;;;3.13;;
2720;SDS011;1368;49.484;11.112;2024-02-04T03:11:42;5.30;;;3.90;;
2720;SDS011;1368;49.484;11.112;2024-02-04T03:14:08;4.90;;;3.10;;
2720;SDS011;1368;49.484;11.112;2024-02-04T03:16:33;5.17;;;4.17;;
2720;SDS011;1368;49.484;11.112;2024-02-04T03:18:59;5.23;;;3.47;;
2720;SDS011;1368;49.484;11.112;2024-02-04T03:21:24;3.60;;;2.90;;
2720;SDS011;1368;49.484;11.112;2024-02-04T03:23:50;5.17;;;3.20;;
2720;SDS011;1368;49.484;11.112;2024-02-04T03:26:16;4.67;;;3.30;;
2720;SDS011;1368;49.484;11.112;2024-02-04T03:28:45;4.17;;;3.00;;
2720;SDS011;1368;49.484;11.112;2024-02-04T03:31:10;3.53;;;2.90;;
2720;SDS011;1368;49.484;11.112;2024-02-04T03:33:36;4.47;;;3.27;;
2720;SDS011;1368;49.484;11.112;2024-02-04T03:36:01;5.50;;;3.20;;
2720;SDS011;1368;49.484;11.112;2024-02-04T03:38:27;4.10;;;3.20;;
2720;SDS011;1368;49.484;11.112;2024-02-04T03:40:52;5.10;;;3.30;;
2720;SDS011;1368;49.484;11.112;2024-02-04T03:43:19;3.90;;;3.50;;
2720;SDS011;1368;49.484;11.112;2024-02-04T03:45:45;5.53;;;3.70;;
2720;SDS011;1368;49.484;11.112;2024-02-04T03:48:10;4.13;;;3.13;;
2720;SDS011;1368;49.484;11.112;2024-02-04T03:50:36;5.93;;;3.60;;
2720;SDS011;1368;49.484;11.112;2024-02-04T03:53:01;7.00;;;3.83;;
2720;SDS011;1368;49.484;11.112;2024-02-04T03:55:27;5.10;;;3.90;;
2720;SDS011;1368;49.484;11.112;2024-02-04T03:57:54;5.20;;;3.80;;
2720;SDS011;1368;49.484;11.112;2024-02-04T04:00:22;4.83;;;3.80;;
2720;SDS011;1368;49.484;11.112;2024-02-04T04:02:47;4.93;;;4.07;;
2720;SDS011;1368;49.484;11.112;2024-02-04T04:05:13;5.30;;;3.67;;
2720;SDS011;1368;49.484;11.112;2024-02-04T04:07:39;5.30;;;4.00;;
2720;SDS011;1368;49.484;11.112;2024-02-04T04:10:05;4.37;;;3.37;;
2720;SDS011;1368;49.484;11.112;2024-02-04T04:12:31;5.73;;;4.10;;
2720;SDS011;1368;49.484;11.112;2024-02-04T04:14:56;6.70;;;4.50;;
2720;SDS011;1368;49.484;11.112;2024-02-04T04:17:22;7.10;;;4.33;;
2720;SDS011;1368;49.484;11.112;2024-02-04T04:19:48;9.90;;;4.83;;
2720;SDS011;1368;49.484;11.112;2024-02-04T04:22:13;5.63;;;3.50;;
2720;SDS011;1368;49.484;11.112;2024-02-04T04:24:39;7.73;;;4.10;;
2720;SDS011;1368;49.484;11.112;2024-02-04T04:27:04;4.63;;;3.70;;
2720;SDS011;1368;49.484;11.112;2024-02-04T04:29:30;4.67;;;3.60;;
2720;SDS011;1368;49.484;11.112;2024-02-04T04:31:55;6.07;;;4.67;;
2720;SDS011;1368;49.484;11.112;2024-02-04T04:34:21;5.67;;;3.77;;
2720;SDS011;1368;49.484;11.112;2024-02-04T04:36:47;7.00;;;4.63;;
2720;SDS011;1368;49.484;11.112;2024-02-04T04:39:12;6.20;;;4.43;;
2720;SDS011;1368;49.484;11.112;2024-02-04T04:41:39;7.00;;;4.70;;
2720;SDS011;1368;49.484;11.112;2024-02-04T04:44:05;7.00;;;4.40;;
2720;SDS011;1368;49.484;11.112;2024-02-04T04:46:31;6.60;;;3.80;;
2720;SDS011;1368;49.484;11.112;2024-02-04T04:48:56;5.83;;;3.50;;
2720;SDS011;1368;49.484;11.112;2024-02-04T04:51:23;5.33;;;3.80;;
2720;SDS011;1368;49.484;11.112;2024-02-04T04:53:49;4.47;;;3.50;;
2720;SDS011;1368;49.484;11.112;2024-02-04T04:56:14;3.73;;;2.80;;
2720;SDS011;1368;49.484;11.112;2024-02-04T04:58:40;4.63;;;3.50;;
2720;SDS011;1368;49.484;11.112;2024-02-04T05:01:06;4.10;;;3.23;;
2720;SDS011;1368;49.484;11.112;2024-02-04T05:03:31;5.40;;;3.40;;
2720;SDS011;1368;49.484;11.112;2024-02-04T05:05:57;5.37;;;3.30;;
2720;SDS011;1368;49.484;11.112;2024-02-04T05:08:23;3.73;;;2.90;;
2720;SDS011;1368;49.484;11.112;2024-02-04T05:10:48;3.93;;;3.07;;
2720;SDS011;1368;49.484;11.112;2024-02-04T05:13:14;3.57;;;2.70;;
2720;SDS011;1368;49.484;11.112;2024-02-04T05:15:39;4.90;;;2.80;;
2720;SDS011;1368;49.484;11.112;2024-02-04T05:18:05;4.07;;;2.53;;
2720;SDS011;1368;49.484;11.112;2024-02-04T05:20:31;4.43;;;2.80;;
2720;SDS011;1368;49.484;11.112;2024-02-04T05:22:56;5.30;;;3.27;;
2720;SDS011;1368;49.484;11.112;2024-02-04T05:25:22;6.80;;;3.23;;
2720;SDS011;1368;49.484;11.112;2024-02-04T05:27:48;3.37;;;2.20;;
2720;SDS011;1368;49.484;11.112;2024-02-04T05:30:14;4.03;;;1.70;;
2720;SDS011;1368;49.484;11.112;2024-02-04T05:32:40;3.00;;;1.73;;
2720;SDS011;1368;49.484;11.112;2024-02-04T05:35:07;3.00;;;1.90;;
2720;SDS011;1368;49.484;11.112;2024-02-04T05:37:33;2.40;;;1.80;;
2720;SDS011;1368;49.484;11.112;2024-02-04T05:39:58;3.73;;;1.43;;
2720;SDS011;1368;49.484;11.112;2024-02-04T05:42:24;2.63;;;1.73;;
2720;SDS011;1368;49.484;11.112;2024-02-04T05:44:49;2.33;;;1.77;;
2720;SDS011;1368;49.484;11.112;2024-02-04T05:47:15;2.90;;;1.70;;
2720;SDS011;1368;49.484;11.112;2024-02-04T05:49:40;4.20;;;2.30;;
2720;SDS011;1368;49.484;11.112;2024-02-04T05:52:06;2.47;;;1.57;;
2720;SDS011;1368;49.484;11.112;2024-02-04T05:54:32;3.00;;;1.90;;
2720;SDS011;1368;49.484;11.112;2024-02-04T05:57:01;3.80;;;2.33;;
2720;SDS011;1368;49.484;11.112;2024-02-04T05:59:27;3.83;;;2.50;;
2720;SDS011;1368;49.484;11.112;2024-02-04T06:01:52;3.83;;;2.00;;
2720;SDS011;1368;49.484;11.112;2024-02-04T06:04:18;1.90;;;1.23;;
2720;SDS011;1368;49.484;11.112;2024-02-04T06:06:44;2.20;;;1.43;;
2720;SDS011;1368;49.484;11.112;2024-02-04T06:09:09;1.87;;;1.10;;
2720;SDS011;1368;49.484;11.112;2024-02-04T06:11:35;7.37;;;1.30;;
2720;SDS011;1368;49.484;11.112;2024-02-04T06:14:00;4.03;;;1.47;;
2720;SDS011;1368;49.484;11.112;2024-02-04T06:16:26;3.27;;;1.40;;
2720;SDS011;1368;49.484;11.112;2024-02-04T06:18:52;1.73;;;1.20;;
2720;SDS011;1368;49.484;11.112;2024-02-04T06:21:20;1.80;;;1.10;;
2720;SDS011;1368;49.484;11.112;2024-02-04T06:23:46;3.90;;;1.80;;
2720;SDS011;1368;49.484;11.112;2024-02-04T06:26:11;1.80;;;0.97;;
2720;SDS011;1368;49.484;11.112;2024-02-04T06:28:37;2.73;;;1.60;;
2720;SDS011;1368;49.484;11.112;2024-02-04T06:31:02;2.30;;;1.60;;
2720;SDS011;1368;49.484;11.112;2024-02-04T06:33:28;1.90;;;1.10;;
2720;SDS011;1368;49.484;11.112;2024-02-04T06:35:53;1.90;;;1.30;;
2720;SDS011;1368;49.484;11.112;2024-02-04T06:38:19;2.63;;;1.57;;
2720;SDS011;1368;49.484;11.112;2024-02-04T06:40:45;2.53;;;1.53;;
2720;SDS011;1368;49.484;11.112;2024-02-04T06:43:10;2.03;;;1.10;;
2720;SDS011;1368;49.484;11.112;2024-02-04T06:45:36;2.23;;;1.47;;
2720;SDS011;1368;49.484;11.112;2024-02-04T06:48:01;1.97;;;1.17;;
2720;SDS011;1368;49.484;11.112;2024-02-04T06:50:28;2.07;;;1.23;;
2720;SDS011;1368;49.484;11.112;2024-02-04T06:52:53;2.20;;;1.30;;
2720;SDS011;1368;49.484;11.112;2024-02-04T06:55:19;2.43;;;1.10;;
2720;SDS011;1368;49.484;11.112;2024-02-04T06:57:44;2.33;;;1.17;;
2720;SDS011;1368;49.484;11.112;2024-02-04T07:00:10;2.40;;;1.60;;
2720;SDS011;1368;49.484;11.112;2024-02-04T07:02:36;2.00;;;1.23;;
2720;SDS011;1368;49.484;11.112;2024-02-04T07:05:02;2.07;;;1.37;;
2720;SDS011;1368;49.484;11.112;2024-02-04T07:07:28;2.20;;;1.10;;
2720;SDS011;1368;49.484;11.112;2024-02-04T07:09:54;1.80;;;1.17;;
2720;SDS011;1368;49.484;11.112;2024-02-04T07:12:20;2.87;;;1.53;;
2720;SDS011;1368;49.484;11.112;2024-02-04T07:14:46;2.20;;;1.50;;
2720;SDS011;1368;49.484;11.112;2024-02-04T07:17:11;3.07;;;1.53;;
2720;SDS011;1368;49.484;11.112;2024-02-04T07:19:37;1.93;;;1.20;;
2720;SDS011;1368;49.484;11.112;2024-02-04T07:22:03;2.13;;;1.07;;
2720;SDS011;1368;49.484;11.112;2024-02-04T07:24:28;1.77;;;1.00;;
2720;SDS011;1368;49.484;11.112;2024-02-04T07:26:54;2.00;;;0.93;;
2720;SDS011;1368;49.484;11.112;2024-02-04T07:29:20;2.00;;;1.30;;
2720;SDS011;1368;49.484;11.112;2024-02-04T07:31:46;2.13;;;1.50;;
2720;SDS011;1368;49.484;11.112;2024-02-04T07:34:11;2.60;;;1.00;;
2720;SDS011;1368;49.484;11.112;2024-02-04T07:36:37;2.37;;;0.90;;
2720;SDS011;1368;49.484;11.112;2024-02-04T07:39:02;2.03;;;0.90;;
2720;SDS011;1368;49.484;11.112;2024-02-04T07:41:29;1.60;;;1.10;;
2720;SDS011;1368;49.484;11.112;2024-02-04T07:43:56;2.27;;;1.00;;
2720;SDS011;1368;49.484;11.112;2024-02-04T07:46:22;2.07;;;1.20;;
2720;SDS011;1368;49.484;11.112;2024-02-04T07:48:47;1.70;;;1.10;;
2720;SDS011;1368;49.484;11.112;2024-02-04T07:51:13;2.20;;;1.30;;
2720;SDS011;1368;49.484;11.112;2024-02-04T07:53:39;3.43;;;1.60;;
2720;SDS011;1368;49.484;11.112;2024-02-04T07:56:04;4.40;;;1.30;;
2720;SDS011;1368;49.484;11.112;2024-02-04T07:58:32;1.53;;;0.93;;
2720;SDS011;1368;49.484;11.112;2024-02-04T08:00:58;2.10;;;1.20;;
2720;SDS011;1368;49.484;11.112;2024-02-04T08:03:23;2.47;;;1.30;;
2720;SDS011;1368;49.484;11.112;2024-02-04T08:05:49;1.90;;;1.10;;
2720;SDS011;1368;49.484;11.112;2024-02-04T08:08:14;1.77;;;0.83;;
2720;SDS011;1368;49.484;11.112;2024-02-04T08:10:40;1.77;;;0.77;;
2720;SDS011;1368;49.484;11.112;2024-02-04T08:13:05;1.67;;;1.00;;
2720;SDS011;1368;49.484;11.112;2024-02-04T08:15:31;2.77;;;1.00;;
2720;SDS011;1368;49.484;11.112;2024-02-04T08:17:57;1.73;;;0.70;;
2720;SDS011;1368;49.484;11.112;2024-02-04T08:20:22;2.17;;;1.27;;
2720;SDS011;1368;49.484;11.112;2024-02-04T08:22:48;1.90;;;0.90;;
2720;SDS011;1368;49.484;11.112;2024-02-04T08:25:14;2.60;;;1.10;;
2720;SDS011;1368;49.484;11.112;2024-02-04T08:27:40;2.40;;;1.23;;
2720;SDS011;1368;49.484;11.112;2024-02-04T08:30:05;2.20;;;1.03;;
2720;SDS011;1368;49.484;11.112;2024-02-04T08:32:31;2.30;;;1.20;;
2720;SDS011;1368;49.484;11.112;2024-02-04T08:34:57;1.93;;;1.00;;
2720;SDS011;1368;49.484;11.112;2024-02-04T08:37:22;1.83;;;0.90;;
2720;SDS011;1368;49.484;11.112;2024-02-04T08:39:48;2.07;;;1.20;;
2720;SDS011;1368;49.484;11.112;2024-02-04T08:42:14;5.03;;;1.97;;
2720;SDS011;1368;49.484;11.112;2024-02-04T08:44:40;4.07;;;2.47;;
2720;SDS011;1368;49.484;11.112;2024-02-04T08:47:06;1.70;;;1.00;;
2720;SDS011;1368;49.484;11.112;2024-02-04T08:49:35;2.90;;;1.60;;
2720;SDS011;1368;49.484;11.112;2024-02-04T08:52:01;1.97;;;1.10;;
2720;SDS011;1368;49.484;11.112;2024-02-04T08:54:27;2.70;;;0.90;;
2720;SDS011;1368;49.484;11.112;2024-02-04T08:56:53;2.47;;;1.00;;
2720;SDS011;1368;49.484;11.112;2024-02-04T08:59:18;4.43;;;1.30;;
2720;SDS011;1368;49.484;11.112;2024-02-04T09:01:44;1.83;;;1.03;;
2720;SDS011;1368;49.484;11.112;2024-02-04T09:04:09;1.70;;;1.10;;
2720;SDS011;1368;49.484;11.112;2024-02-04T09:06:35;2.20;;;1.20;;
2720;SDS011;1368;49.484;11.112;2024-02-04T09:09:00;2.77;;;1.10;;
2720;SDS011;1368;49.484;11.112;2024-02-04T09:11:26;1.90;;;1.10;;
2720;SDS011;1368;49.484;11.112;2024-02-04T09:13:51;1.90;;;0.97;;
2720;SDS011;1368;49.484;11.112;2024-02-04T09:16:17;1.87;;;1.03;;
2720;SDS011;1368;49.484;11.112;2024-02-04T09:18:42;2.30;;;1.20;;
2720;SDS011;1368;49.484;11.112;2024-02-04T09:21:09;2.77;;;1.30;;
2720;SDS011;1368;49.484;11.112;2024-02-04T09:23:34;1.73;;;0.97;;
2720;SDS011;1368;49.484;11.112;2024-02-04T09:26:00;2.23;;;1.10;;
2720;SDS011;1368;49.484;11.112;2024-02-04T09:28:25;1.70;;;0.90;;
2720;SDS011;1368;49.484;11.112;2024-02-04T09:30:51;2.23;;;1.13;;
2720;SDS011;1368;49.484;11.112;2024-02-04T09:33:16;2.00;;;1.30;;
2720;SDS011;1368;49.484;11.112;2024-02-04T09:35:42;1.30;;;0.70;;
2720;SDS011;1368;49.484;11.112;2024-02-04T09:38:08;1.60;;;0.70;;
2720;SDS011;1368;49.484;11.112;2024-02-04T09:40:34;1.97;;;1.00;;
2720;SDS011;1368;49.484;11.112;2024-02-04T09:43:00;2.07;;;1.10;;
2720;SDS011;1368;49.484;11.112;2024-02-04T09:45:26;1.50;;;0.70;;
2720;SDS011;1368;49.484;11.112;2024-02-04T09:47:51;1.87;;;0.80;;
2720;SDS011;1368;49.484;11.112;2024-02-04T09:50:20;1.90;;;1.00;;
2720;SDS011;1368;49.484;11.112;2024-02-04T09:52:48;2.20;;;1.20;;
2720;SDS011;1368;49.484;11.112;2024-02-04T09:55:16;2.10;;;1.00;;
2720;SDS011;1368;49.484;11.112;2024-02-04T09:57:42;2.00;;;1.07;;
2720;SDS011;1368;49.484;11.112;2024-02-04T10:00:09;2.20;;;0.80;;
2720;SDS011;1368;49.484;11.112;2024-02-04T10:02:35;1.90;;;1.00;;
2720;SDS011;1368;49.484;11.112;2024-02-04T10:05:01;1.77;;;0.80;;
2720;SDS011;1368;49.484;11.112;2024-02-04T10:07:28;1.70;;;0.80;;
2720;SDS011;1368;49.484;11.112;2024-02-04T10:09:54;1.60;;;0.70;;
2720;SDS011;1368;49.484;11.112;2024-02-04T10:12:20;1.90;;;0.90;;
2720;SDS011;1368;49.484;11.112;2024-02-04T10:14:46;1.83;;;1.13;;
2720;SDS011;1368;49.484;11.112;2024-02-04T10:17:13;2.10;;;0.90;;
2720;SDS011;1368;49.484;11.112;2024-02-04T10:19:40;1.70;;;0.80;;
2720;SDS011;1368;49.484;11.112;2024-02-04T10:22:05;2.30;;;1.13;;
2720;SDS011;1368;49.484;11.112;2024-02-04T10:24:31;1.90;;;0.90;;
2720;SDS011;1368;49.484;11.112;2024-02-04T10:26:57;2.23;;;0.80;;
2720;SDS011;1368;49.484;11.112;2024-02-04T10:29:23;2.00;;;0.90;;
2720;SDS011;1368;49.484;11.112;2024-02-04T10:31:52;2.10;;;0.90;;
2720;SDS011;1368;49.484;11.112;2024-02-04T10:34:22;1.90;;;1.13;;
2720;SDS011;1368;49.484;11.112;2024-02-04T10:36:48;1.60;;;0.80;;
2720;SDS011;1368;49.484;11.112;2024-02-04T10:39:14;1.57;;;0.67;;
2720;SDS011;1368;49.484;11.112;2024-02-04T10:41:44;2.90;;;0.80;;
2720;SDS011;1368;49.484;11.112;2024-02-04T10:44:23;1.93;;;0.97;;
2720;SDS011;1368;49.484;11.112;2024-02-04T10:46:49;1.97;;;1.00;;
2720;SDS011;1368;49.484;11.112;2024-02-04T10:49:17;2.10;;;0.90;;
2720;SDS011;1368;49.484;11.112;2024-02-04T10:51:44;1.90;;;1.03;;
2720;SDS011;1368;49.484;11.112;2024-02-04T10:54:11;1.67;;;0.93;;
2720;SDS011;1368;49.484;11.112;2024-02-04T10:56:44;1.33;;;0.60;;
2720;SDS011;1368;49.484;11.112;2024-02-04T10:59:11;1.53;;;0.67;;
2720;SDS011;1368;49.484;11.112;2024-02-04T11:01:42;2.47;;;0.93;;
2720;SDS011;1368;49.484;11.112;2024-02-04T11:04:10;2.53;;;0.70;;
2720;SDS011;1368;49.484;11.112;2024-02-04T11:06:38;2.37;;;1.13;;
2720;SDS011;1368;49.484;11.112;2024-02-04T11:09:11;2.17;;;1.03;;
2720;SDS011;1368;49.484;11.112;2024-02-04T11:12:18;2.30;;;1.10;;
2720;SDS011;1368;49.484;11.112;2024-02-04T11:14:46;3.03;;;1.50;;
2720;SDS011;1368;49.484;11.112;2024-02-04T11:25:51;1.37;;;0.63;;
2720;SDS011;1368;49.484;11.112;2024-02-04T11:28:19;1.90;;;0.90;;
2720;SDS011;1368;49.484;11.112;2024-02-04T11:30:46;1.63;;;0.90;;
2720;SDS011;1368;49.484;11.112;2024-02-04T11:33:17;3.70;;;1.60;;
2720;SDS011;1368;49.484;11.112;2024-02-04T11:35:44;1.97;;;1.00;;
2720;SDS011;1368;49.484;11.112;2024-02-04T11:38:11;3.50;;;2.00;;
2720;SDS011;1368;49.484;11.112;2024-02-04T11:40:38;3.83;;;1.87;;
2720;SDS011;1368;49.484;11.112;2024-02-04T11:43:10;2.03;;;0.97;;
2720;SDS011;1368;49.484;11.112;2024-02-04T11:45:39;2.90;;;1.30;;
2720;SDS011;1368;49.484;11.112;2024-02-04T11:48:09;2.00;;;1.00;;
2720;SDS011;1368;49.484;11.112;2024-02-04T11:50:37;2.87;;;1.40;;
2720;SDS011;1368;49.484;11.112;2024-02-04T11:53:08;2.80;;;1.10;;
2720;SDS011;1368;49.484;11.112;2024-02-04T11:55:35;1.50;;;0.67;;
2720;SDS011;1368;49.484;11.112;2024-02-04T11:58:01;2.37;;;0.87;;
2720;SDS011;1368;49.484;11.112;2024-02-04T12:00:28;3.60;;;1.60;;
2720;SDS011;1368;49.484;11.112;2024-02-04T12:03:03;1.40;;;0.60;;
2720;SDS011;1368;49.484;11.112;2024-02-04T12:05:34;1.87;;;0.87;;
2720;SDS011;1368;49.484;11.112;2024-02-04T12:08:03;2.10;;;1.10;;
2720;SDS011;1368;49.484;11.112;2024-02-04T12:10:31;2.00;;;1.30;;
2720;SDS011;1368;49.484;11.112;2024-02-04T12:13:05;1.70;;;0.80;;
2720;SDS011;1368;49.484;11.112;2024-02-04T12:15:34;2.00;;;1.10;;
2720;SDS011;1368;49.484;11.112;2024-02-04T12:18:10;2.47;;;1.30;;
2720;SDS011;1368;49.484;11.112;2024-02-04T12:20:36;1.70;;;0.90;;
2720;SDS011;1368;49.484;11.112;2024-02-04T12:23:06;2.47;;;1.67;;
2720;SDS011;1368;49.484;11.112;2024-02-04T12:25:32;1.80;;;1.30;;
2720;SDS011;1368;49.484;11.112;2024-02-04T12:27:59;2.10;;;1.30;;
2720;SDS011;1368;49.484;11.112;2024-02-04T12:30:28;2.00;;;0.80;;
2720;SDS011;1368;49.484;11.112;2024-02-04T12:35:22;3.27;;;1.90;;
2720;SDS011;1368;49.484;11.112;2024-02-04T12:37:51;4.43;;;2.40;;
2720;SDS011;1368;49.484;11.112;2024-02-04T12:40:28;2.00;;;0.97;;
2720;SDS011;1368;49.484;11.112;2024-02-04T12:42:55;7.10;;;3.10;;
2720;SDS011;1368;49.484;11.112;2024-02-04T12:45:26;4.33;;;2.77;;
2720;SDS011;1368;49.484;11.112;2024-02-04T12:47:53;3.43;;;2.00;;
2720;SDS011;1368;49.484;11.112;2024-02-04T12:50:20;3.03;;;2.00;;
2720;SDS011;1368;49.484;11.112;2024-02-04T12:52:46;1.90;;;1.23;;
2720;SDS011;1368;49.484;11.112;2024-02-04T12:55:22;2.23;;;0.80;;
2720;SDS011;1368;49.484;11.112;2024-02-04T12:57:49;1.70;;;1.00;;
2720;SDS011;1368;49.484;11.112;2024-02-04T13:00:18;1.83;;;0.93;;
2720;SDS011;1368;49.484;11.112;2024-02-04T13:02:43;1.93;;;0.80;;
2720;SDS011;1368;49.484;11.112;2024-02-04T13:05:09;1.93;;;1.00;;
2720;SDS011;1368;49.484;11.112;2024-02-04T13:07:35;2.10;;;1.00;;
2720;SDS011;1368;49.484;11.112;2024-02-04T13:10:01;2.40;;;1.27;;
2720;SDS011;1368;49.484;11.112;2024-02-04T13:12:27;2.40;;;1.20;;
2720;SDS011;1368;49.484;11.112;2024-02-04T13:14:52;2.23;;;1.10;;
2720;SDS011;1368;49.484;11.112;2024-02-04T13:17:18;2.23;;;1.17;;
2720;SDS011;1368;49.484;11.112;2024-02-04T13:19:43;1.53;;;0.87;;
2720;SDS011;1368;49.484;11.112;2024-02-04T13:22:10;2.20;;;1.07;;
2720;SDS011;1368;49.484;11.112;2024-02-04T13:24:35;1.60;;;0.90;;
2720;SDS011;1368;49.484;11.112;2024-02-04T13:27:01;2.23;;;1.07;;
2720;SDS011;1368;49.484;11.112;2024-02-04T13:29:34;1.37;;;0.60;;
2720;SDS011;1368;49.484;11.112;2024-02-04T13:31:59;1.90;;;0.97;;
2720;SDS011;1368;49.484;11.112;2024-02-04T13:34:25;1.60;;;0.80;;
2720;SDS011;1368;49.484;11.112;2024-02-04T13:36:51;2.17;;;1.23;;
2720;SDS011;1368;49.484;11.112;2024-02-04T13:39:16;2.00;;;0.93;;
2720;SDS011;1368;49.484;11.112;2024-02-04T13:41:42;1.60;;;0.97;;
2720;SDS011;1368;49.484;11.112;2024-02-04T13:44:09;1.80;;;0.83;;
2720;SDS011;1368;49.484;11.112;2024-02-04T13:46:34;4.27;;;1.20;;
2720;SDS011;1368;49.484;11.112;2024-02-04T13:49:00;2.07;;;1.00;;
2720;SDS011;1368;49.484;11.112;2024-02-04T13:51:26;1.60;;;0.97;;
2720;SDS011;1368;49.484;11.112;2024-02-04T13:53:51;1.57;;;0.80;;
2720;SDS011;1368;49.484;11.112;2024-02-04T13:56:17;2.80;;;1.23;;
2720;SDS011;1368;49.484;11.112;2024-02-04T13:58:44;1.57;;;0.80;;
2720;SDS011;1368;49.484;11.112;2024-02-04T14:01:09;1.70;;;0.83;;
2720;SDS011;1368;49.484;11.112;2024-02-04T14:03:35;2.50;;;1.17;;
2720;SDS011;1368;49.484;11.112;2024-02-04T14:06:01;1.60;;;0.90;;
2720;SDS011;1368;49.484;11.112;2024-02-04T14:08:28;4.73;;;1.10;;
2720;SDS011;1368;49.484;11.112;2024-02-04T14:10:54;1.73;;;1.00;;
2720;SDS011;1368;49.484;11.112;2024-02-04T14:13:20;2.00;;;1.00;;
2720;SDS011;1368;49.484;11.112;2024-02-04T14:15:45;3.10;;;1.27;;
2720;SDS011;1368;49.484;11.112;2024-02-04T14:18:11;2.67;;;1.20;;
2720;SDS011;1368;49.484;11.112;2024-02-04T14:20:36;2.77;;;1.10;;
2720;SDS011;1368;49.484;11.112;2024-02-04T14:23:02;3.50;;;1.27;;
2720;SDS011;1368;49.484;11.112;2024-02-04T14:25:27;2.30;;;1.10;;
2720;SDS011;1368;49.484;11.112;2024-02-04T14:27:53;2.27;;;0.97;;
2720;SDS011;1368;49.484;11.112;2024-02-04T14:30:19;2.50;;;1.50;;
2720;SDS011;1368;49.484;11.112;2024-02-04T14:32:45;3.90;;;1.67;;
2720;SDS011;1368;49.484;11.112;2024-02-04T14:35:10;1.77;;;1.10;;
2720;SDS011;1368;49.484;11.112;2024-02-04T14:37:36;2.50;;;1.33;;
2720;SDS011;1368;49.484;11.112;2024-02-04T14:40:04;1.70;;;1.20;;
2720;SDS011;1368;49.484;11.112;2024-02-04T14:42:31;2.70;;;1.73;;
2720;SDS011;1368;49.484;11.112;2024-02-04T14:44:57;2.00;;;1.40;;
2720;SDS011;1368;49.484;11.112;2024-02-04T14:47:25;2.20;;;1.50;;
2720;SDS011;1368;49.484;11.112;2024-02-04T14:49:51;3.17;;;1.80;;
2720;SDS011;1368;49.484;11.112;2024-02-04T14:52:16;2.60;;;1.73;;
2720;SDS011;1368;49.484;11.112;2024-02-04T14:54:43;4.10;;;1.63;;
2720;SDS011;1368;49.484;11.112;2024-02-04T14:57:08;4.27;;;2.17;;
2720;SDS011;1368;49.484;11.112;2024-02-04T14:59:34;4.50;;;2.50;;
2720;SDS011;1368;49.484;11.112;2024-02-04T15:02:02;2.60;;;1.43;;
2720;SDS011;1368;49.484;11.112;2024-02-04T15:04:30;2.73;;;1.70;;
2720;SDS011;1368;49.484;11.112;2024-02-04T15:06:57;2.90;;;1.70;;
2720;SDS011;1368;49.484;11.112;2024-02-04T15:09:22;2.70;;;2.10;;
2720;SDS011;1368;49.484;11.112;2024-02-04T15:11:48;3.00;;;1.40;;